Aviation Digital Data Service (ADDS)

Output produced by METARs form (0932 UTC 17 November 2018)
found at http://www.aviationweather.gov/metar/data/
 
EEEI 170850Z 26010KT 9999 SCT015 OVC021 08/05 Q1035 R24/090095 NOSIG
TAF EEEI 170530Z 1706/1806 27012KT 9999 SCT012 BKN020 
     TEMPO 1706/1709 BKN012 
     TEMPO 1709/1715 BKN008 
     BECMG 1721/1723 36015KT 
     TEMPO 1802/1806 01016G26KT
       
EEKA 170850Z 26007KT 9999 BKN011 OVC025 08/06 Q1036
TAF EEKA 170500Z 1706/1712 27016G26KT 9999 BKN015 
     TEMPO 1706/1712 BKN007
       
EEKE 170850Z 27007KT 220V310 9999 OVC017 07/05 Q1038
TAF EEKE 170800Z 1709/1715 26012KT 9999 OVC015 
     TEMPO 1709/1715 26015G25KT BKN007
       
EEPU 170850Z 25008KT 9999 OVC017 08/05 Q1037
EETN 170920Z 26015KT 9999 OVC013 07/05 Q1034 R08/11//95 NOSIG
TAF EETN 170530Z 1706/1806 25016G26KT 9999 SCT008 BKN015 
     TEMPO 1706/1713 BKN006 OVC010 
     PROB40 
     TEMPO 1706/1712 5000 RA 
     BECMG 1713/1715 31014KT BKN025 
     BECMG 1721/1723 35015G25KT 
     BECMG 1803/1805 02018G30KT
       
EETU 170850Z 23013KT 4000 -DZ BR OVC004 03/03 Q1036